Leesburg, IN (46538)

7:48 PM EDT on July 30, 2015 (GMT -0400)
Clunette Elevator | | Change Station
CLOSE
Current Station
Personal Weather Station
Location: Leesburg, IN
Elevation: 852 ft
Nearby Weather Stations

Elev 852 ft 41.32 °N, 85.93 °W | Updated 3 minutes ago

Clear
Clear
82.1 °F
Feels Like 83 °F
N
1.0
Wind Variable Wind from SSW
Gusts 8.0 mph

Today
High -- | Low -- °F
--% Chance of Precip.
Yesterday
High -- | Low -- °F
Precip. -- in
6:36 AM 9:02 PM
Full, 100% visible
Pressure 30.02 in
Visibility 10.0 miles
Clouds Clear
Heat Index 83 °F
Dew Point 63 °F
Humidity 53%
Rainfall in
Snow Depth Not available.
UV 1 out of 12
Pollen 7.10 out of 12
Air Quality Not available.
Flu Activity Not available.
METAR KASW 302335Z AUTO 31004KT 10SM CLR 27/14 A3002 RMK AO2

More Conditions Fewer Conditions

Pressure 30.02 in
Visibility 10.0 miles
Clouds Clear
Heat Index 83 °F
Dew Point 63 °F
Humidity 53%
Rainfall in
Snow Depth Not available.
UV 1 out of 12
Pollen 7.10 out of 12
Air Quality Not available.
Flu Activity Not available.
METAR KASW 302335Z AUTO 31004KT 10SM CLR 27/14 A3002 RMK AO2

More Conditions Fewer Conditions

10-Day Weather Forecast

×

Almanac

Astronomy

Jul. 30, 2015 Rise Set
Actual Time
Civil Twilight
Nautical Twilight
Astronomical Twilight
Moon
Length of Visible Light
Length of Day
Tomorrow will be .
, % of the Moon is Illuminated

Today's Extremes

State Highs State Lows

Community

WunderPhotos

Upload Photos

1,842,543 photos uploaded!

WunderBlogs® & News

Nearby

Air Quality

  Air Quality AQ Index Pollutant
Not available.

Snow Depth

Station Depth Elevation

Earthquake Activity

City Distance Mag. Time & Date
Minimum magnitude displayed is 2.5.

Coastal Water Temperatures

Place Temperature

Stations

Nearby Weather Stations

Station Location Temp. Windchill Dew Point Humidity Wind Precip. Elev Updated Type